createdAt,value
2023-03-06T00:00:10.051Z,88.98
2023-03-06T00:01:10.099Z,88.87
2023-03-06T00:02:09.975Z,88.87
2023-03-06T00:03:09.979Z,88.77
2023-03-06T00:04:10.080Z,88.77
2023-03-06T00:05:09.992Z,88.77
2023-03-06T00:06:10.180Z,88.87
2023-03-06T00:07:10.004Z,88.87
2023-03-06T00:08:09.975Z,88.98
2023-03-06T00:09:10.089Z,88.98
2023-03-06T00:10:09.904Z,89.08
2023-03-06T00:11:09.915Z,88.98
2023-03-06T00:12:09.853Z,89.08
2023-03-06T00:13:09.844Z,88.98
2023-03-06T00:14:09.977Z,89.18
2023-03-06T00:15:09.838Z,89.18
2023-03-06T00:16:09.838Z,89.29
2023-03-06T00:17:09.793Z,89.39
2023-03-06T00:18:09.780Z,89.39
2023-03-06T00:19:09.818Z,89.18
2023-03-06T00:20:09.810Z,89.18
2023-03-06T00:21:09.815Z,89.18
2023-03-06T00:22:09.762Z,89.29
2023-03-06T00:23:09.783Z,89.39
2023-03-06T00:24:09.863Z,89.50
2023-03-06T00:25:09.775Z,89.50
2023-03-06T00:26:09.789Z,89.50
2023-03-06T00:27:09.736Z,89.60
2023-03-06T00:28:09.740Z,89.70
2023-03-06T00:29:09.733Z,89.81
2023-03-06T00:30:09.657Z,89.92
2023-03-06T00:31:09.736Z,90.02
2023-03-06T00:32:09.753Z,90.16
2023-03-06T00:33:09.657Z,90.37
2023-03-06T00:34:09.652Z,90.47
2023-03-06T00:35:09.779Z,90.47
2023-03-06T00:36:09.713Z,90.58
2023-03-06T00:37:09.846Z,90.58
2023-03-06T00:38:09.765Z,90.69
2023-03-06T00:39:09.742Z,90.69
2023-03-06T00:40:09.584Z,90.79
2023-03-06T00:41:09.585Z,90.89
2023-03-06T00:42:09.605Z,91.00
2023-03-06T00:43:09.624Z,91.10
2023-03-06T00:44:09.520Z,91.41
2023-03-06T00:45:09.744Z,91.52
2023-03-06T00:46:09.541Z,91.52
2023-03-06T00:47:09.493Z,91.66
2023-03-06T00:48:09.584Z,91.77
2023-03-06T00:49:09.575Z,91.77
2023-03-06T00:50:09.429Z,91.77
2023-03-06T00:51:10.482Z,91.77
2023-03-06T00:52:09.446Z,91.87
2023-03-06T00:53:09.511Z,91.97
2023-03-06T00:54:09.481Z,92.08
2023-03-06T00:55:09.396Z,92.08
2023-03-06T00:56:09.661Z,92.08
2023-03-06T00:57:09.389Z,92.08
2023-03-06T00:58:09.423Z,92.08
2023-03-06T00:59:09.390Z,92.08
2023-03-06T01:00:09.356Z,91.97
2023-03-06T01:01:09.354Z,91.97
2023-03-06T01:02:09.313Z,91.97
2023-03-06T01:03:09.426Z,91.97
2023-03-06T01:04:09.338Z,91.93
2023-03-06T01:05:09.287Z,92.08
2023-03-06T01:06:09.348Z,92.08
2023-03-06T01:07:09.267Z,92.18
2023-03-06T01:08:09.262Z,92.18
2023-03-06T01:09:09.272Z,92.08
2023-03-06T01:10:09.357Z,91.93
2023-03-06T01:11:09.209Z,92.03
2023-03-06T01:12:09.299Z,92.03
2023-03-06T01:13:09.330Z,92.03
2023-03-06T01:14:09.380Z,92.03
2023-03-06T01:15:09.381Z,92.14
2023-03-06T01:16:09.416Z,92.29
2023-03-06T01:17:09.358Z,92.39
2023-03-06T01:18:09.219Z,92.49
2023-03-06T01:19:09.501Z,92.60
2023-03-06T01:20:09.235Z,92.70
2023-03-06T01:21:09.354Z,92.60
2023-03-06T01:22:09.173Z,92.70
2023-03-06T01:23:09.149Z,92.80
2023-03-06T01:24:09.316Z,92.91
2023-03-06T01:25:09.076Z,92.91
2023-03-06T01:26:09.056Z,92.91
2023-03-06T01:27:09.056Z,92.80
2023-03-06T01:28:09.044Z,92.80
2023-03-06T01:29:09.004Z,92.80
2023-03-06T01:30:09.009Z,92.80
2023-03-06T01:31:09.000Z,92.91
2023-03-06T01:32:09.013Z,93.01
2023-03-06T01:33:08.985Z,93.12
2023-03-06T01:34:08.986Z,93.23
2023-03-06T01:35:08.954Z,93.33
2023-03-06T01:36:08.969Z,93.33
2023-03-06T01:37:08.933Z,93.43
2023-03-06T01:38:08.964Z,93.54
2023-03-06T01:39:08.910Z,93.64
2023-03-06T01:40:08.935Z,93.64
2023-03-06T01:41:08.885Z,93.64
2023-03-06T01:42:08.897Z,93.85
2023-03-06T01:43:08.868Z,93.85
2023-03-06T01:44:08.908Z,93.85
2023-03-06T01:45:08.847Z,93.85
2023-03-06T01:46:08.915Z,93.95
2023-03-06T01:47:08.840Z,93.95
2023-03-06T01:48:08.840Z,93.95
2023-03-06T01:49:08.809Z,93.95
2023-03-06T01:50:08.895Z,93.85
2023-03-06T01:51:08.783Z,93.74
2023-03-06T01:52:08.800Z,93.85
2023-03-06T01:53:08.788Z,93.64
2023-03-06T01:54:08.823Z,93.64
2023-03-06T01:55:08.788Z,93.79
2023-03-06T01:56:08.753Z,93.89
2023-03-06T01:57:08.782Z,93.99
2023-03-06T01:58:09.159Z,94.10
2023-03-06T01:59:09.009Z,94.20
2023-03-06T02:00:08.928Z,94.31
2023-03-06T02:01:08.779Z,94.31
2023-03-06T02:02:08.773Z,94.31
2023-03-06T02:03:08.811Z,94.41
2023-03-06T02:04:08.788Z,94.51
2023-03-06T02:05:08.733Z,94.51
2023-03-06T02:06:08.654Z,94.72
2023-03-06T02:07:08.822Z,94.72
2023-03-06T02:08:08.657Z,94.72
2023-03-06T02:09:08.778Z,94.72
2023-03-06T02:10:08.987Z,94.76
2023-03-06T02:11:08.912Z,94.87
2023-03-06T02:12:08.903Z,94.98
2023-03-06T02:13:08.781Z,95.08
2023-03-06T02:14:08.811Z,95.08
2023-03-06T02:15:08.640Z,94.98
2023-03-06T02:16:08.735Z,94.98
2023-03-06T02:17:09.077Z,94.98
2023-03-06T02:18:09.657Z,94.87
2023-03-06T02:19:08.665Z,94.76
2023-03-06T02:20:08.689Z,94.87
2023-03-06T02:21:08.473Z,94.93
2023-03-06T02:22:08.500Z,94.98
2023-03-06T02:23:08.537Z,94.98
2023-03-06T02:24:08.609Z,95.08
2023-03-06T02:25:08.547Z,95.08
2023-03-06T02:26:08.557Z,95.08
2023-03-06T02:27:08.444Z,95.08
2023-03-06T02:28:08.408Z,94.93
2023-03-06T02:29:08.414Z,94.82
2023-03-06T02:30:08.406Z,94.72
2023-03-06T02:31:08.421Z,94.72
2023-03-06T02:32:08.449Z,94.72
2023-03-06T02:33:08.383Z,94.98
2023-03-06T02:34:08.378Z,95.08
2023-03-06T02:35:08.337Z,95.18
2023-03-06T02:36:08.323Z,95.39
2023-03-06T02:37:08.332Z,95.50
2023-03-06T02:38:08.306Z,95.60
2023-03-06T02:39:08.300Z,95.60
2023-03-06T02:40:08.282Z,95.70
2023-03-06T02:41:08.279Z,95.70
2023-03-06T02:42:08.267Z,95.70
2023-03-06T02:43:08.247Z,95.81
2023-03-06T02:44:08.244Z,95.70
2023-03-06T02:45:08.230Z,95.70
2023-03-06T02:46:08.285Z,95.70
2023-03-06T02:47:08.199Z,95.60
2023-03-06T02:48:08.339Z,95.50
2023-03-06T02:49:08.182Z,95.39
2023-03-06T02:50:08.167Z,95.50
2023-03-06T02:51:08.152Z,95.60
2023-03-06T02:52:08.155Z,95.81
2023-03-06T02:53:08.122Z,95.70
2023-03-06T02:54:08.123Z,95.81
2023-03-06T02:55:08.111Z,95.91
2023-03-06T02:56:08.118Z,95.91
2023-03-06T02:57:08.166Z,95.91
2023-03-06T02:58:08.104Z,96.01
2023-03-06T02:59:08.060Z,96.12
2023-03-06T03:00:08.071Z,96.12
2023-03-06T03:01:08.082Z,96.22
2023-03-06T03:02:08.060Z,96.33
2023-03-06T03:03:08.014Z,96.43
2023-03-06T03:04:08.082Z,96.43
2023-03-06T03:05:08.004Z,96.53
2023-03-06T03:06:08.064Z,96.53
2023-03-06T03:07:07.973Z,96.43
2023-03-06T03:08:08.011Z,96.43
2023-03-06T03:09:07.966Z,96.53
2023-03-06T03:10:07.971Z,96.53
2023-03-06T03:11:07.955Z,96.64
2023-03-06T03:12:07.961Z,96.53
2023-03-06T03:13:07.914Z,96.64
2023-03-06T03:14:07.912Z,96.75
2023-03-06T03:15:07.896Z,96.85
2023-03-06T03:16:07.922Z,96.85
2023-03-06T03:17:07.875Z,96.95
2023-03-06T03:18:07.879Z,96.85
2023-03-06T03:19:08.214Z,96.85
2023-03-06T03:20:07.860Z,96.85
2023-03-06T03:21:07.816Z,96.85
2023-03-06T03:22:07.817Z,96.85
2023-03-06T03:23:07.837Z,96.75
2023-03-06T03:24:07.794Z,96.85
2023-03-06T03:25:07.810Z,96.75
2023-03-06T03:26:07.791Z,96.75
2023-03-06T03:27:16.277Z,96.75
2023-03-06T03:28:08.514Z,96.85
2023-03-06T03:29:07.729Z,96.85
2023-03-06T03:30:07.758Z,96.95
2023-03-06T03:31:07.778Z,97.00
2023-03-06T03:32:07.755Z,97.00
2023-03-06T03:33:07.709Z,97.10
2023-03-06T03:34:07.680Z,97.10
2023-03-06T03:35:07.665Z,97.20
2023-03-06T03:36:07.687Z,97.31
2023-03-06T03:37:07.629Z,97.31
2023-03-06T03:38:07.636Z,97.31
2023-03-06T03:39:07.637Z,97.31
2023-03-06T03:40:16.277Z,97.41
2023-03-06T03:41:18.726Z,97.31
2023-03-06T03:42:07.602Z,97.41
2023-03-06T03:43:07.612Z,97.62
2023-03-06T03:44:07.606Z,97.62
2023-03-06T03:45:07.582Z,97.72
2023-03-06T03:46:07.595Z,97.83
2023-03-06T03:47:07.531Z,97.83
2023-03-06T03:48:07.550Z,98.04
2023-03-06T03:49:07.532Z,98.04
2023-03-06T03:50:07.573Z,98.19
2023-03-06T03:51:07.529Z,98.29
2023-03-06T03:52:07.543Z,98.39
2023-03-06T03:53:07.488Z,98.39
2023-03-06T03:54:07.482Z,98.50
2023-03-06T03:55:07.460Z,98.60
2023-03-06T03:56:07.458Z,98.71
2023-03-06T03:57:07.429Z,98.71
2023-03-06T03:58:07.467Z,98.82
2023-03-06T03:59:07.431Z,98.82
2023-03-06T04:00:07.461Z,98.82
2023-03-06T04:01:07.393Z,98.92
2023-03-06T04:02:07.462Z,99.07
2023-03-06T04:03:07.364Z,99.07
2023-03-06T04:04:07.363Z,99.27
2023-03-06T04:05:07.403Z,99.48
2023-03-06T04:06:07.368Z,99.48
2023-03-06T04:07:07.336Z,99.59
2023-03-06T04:08:07.341Z,99.69
2023-03-06T04:09:07.313Z,99.80
2023-03-06T04:10:07.313Z,99.99
2023-03-06T04:11:07.287Z,99.99
2023-03-06T04:12:07.297Z,99.99
2023-03-06T04:13:09.900Z,99.99
2023-03-06T04:14:07.280Z,99.99
2023-03-06T04:15:07.244Z,99.99
2023-03-06T04:16:07.274Z,99.99
2023-03-06T04:17:07.241Z,99.99
2023-03-06T04:18:07.236Z,99.99
2023-03-06T04:19:07.225Z,99.99
2023-03-06T04:20:07.253Z,99.99
2023-03-06T04:21:07.529Z,99.99
2023-03-06T04:22:07.224Z,99.99
2023-03-06T04:23:07.148Z,99.99
2023-03-06T04:24:07.154Z,99.99
2023-03-06T04:25:07.141Z,99.99
2023-03-06T04:26:07.146Z,99.99
2023-03-06T04:27:07.141Z,99.99
2023-03-06T04:28:07.130Z,99.99
2023-03-06T04:29:07.106Z,99.99
2023-03-06T04:30:07.112Z,99.99
2023-03-06T04:31:07.120Z,99.99
2023-03-06T04:32:07.167Z,99.99
2023-03-06T04:33:07.074Z,99.99
2023-03-06T04:34:07.064Z,99.99
2023-03-06T04:35:07.047Z,99.99
2023-03-06T04:36:07.066Z,99.99
2023-03-06T04:37:07.028Z,99.99
2023-03-06T04:38:07.018Z,99.99
2023-03-06T04:39:07.092Z,99.99
2023-03-06T04:40:07.006Z,99.99
2023-03-06T04:45:42.136Z,99.99
2023-03-06T04:46:47.966Z,99.99
2023-03-06T04:47:40.370Z,99.99
2023-03-06T04:48:40.389Z,99.99
2023-03-06T04:49:40.375Z,99.99
2023-03-06T04:50:40.359Z,99.99
2023-03-06T04:51:40.378Z,99.99
2023-03-06T04:52:40.366Z,99.99
2023-03-06T04:53:40.342Z,99.99
2023-03-06T04:54:40.340Z,99.99
2023-03-06T04:55:40.315Z,99.99
2023-03-06T04:56:40.306Z,99.99
2023-03-06T04:57:40.303Z,99.99
2023-03-06T04:58:40.297Z,99.99
2023-03-06T04:59:40.284Z,99.99
2023-03-06T05:00:40.287Z,99.99
2023-03-06T05:01:40.250Z,99.99
2023-03-06T05:02:40.262Z,99.99
2023-03-06T05:03:40.223Z,99.99
2023-03-06T05:04:40.214Z,99.99
2023-03-06T05:05:40.197Z,99.99
2023-03-06T05:06:40.202Z,99.99
2023-03-06T05:07:40.164Z,99.99
2023-03-06T05:08:40.190Z,99.99
2023-03-06T05:09:40.182Z,99.99
2023-03-06T05:10:40.150Z,99.99
2023-03-06T05:11:40.131Z,99.99
2023-03-06T05:12:40.190Z,99.99
2023-03-06T05:13:40.311Z,99.99
2023-03-06T05:14:40.392Z,99.99
2023-03-06T05:15:40.447Z,99.99
2023-03-06T05:16:40.246Z,99.99
2023-03-06T05:17:41.350Z,99.99
2023-03-06T05:18:40.425Z,99.99
2023-03-06T05:19:40.103Z,99.99
2023-03-06T05:20:40.400Z,99.99
2023-03-06T05:21:40.170Z,99.99
2023-03-06T05:22:42.707Z,99.99
2023-03-06T05:23:40.191Z,99.99
2023-03-06T05:24:40.399Z,99.99
2023-03-06T05:25:40.291Z,99.99
2023-03-06T05:26:40.091Z,99.99
2023-03-06T05:27:40.473Z,99.99
2023-03-06T05:28:40.830Z,99.99
2023-03-06T05:29:40.643Z,99.99
2023-03-06T05:30:40.085Z,99.99
2023-03-06T05:31:40.339Z,99.99
2023-03-06T05:32:40.470Z,99.99
2023-03-06T05:33:42.714Z,99.99
2023-03-06T05:34:42.607Z,99.99
2023-03-06T05:36:07.846Z,99.99
2023-03-06T05:37:05.533Z,99.99
2023-03-06T05:38:02.773Z,99.99
2023-03-06T05:38:40.872Z,99.99
2023-03-06T05:39:39.856Z,99.99
2023-03-06T05:40:39.828Z,99.99
2023-03-06T05:41:39.840Z,99.99
2023-03-06T05:42:39.804Z,99.99
2023-03-06T05:43:39.832Z,99.99
2023-03-06T05:44:39.790Z,99.99
2023-03-06T05:45:39.815Z,99.99
2023-03-06T05:46:39.798Z,99.99
2023-03-06T05:47:39.773Z,99.99
2023-03-06T05:48:39.756Z,99.99
2023-03-06T05:49:39.747Z,99.99
2023-03-06T05:50:39.723Z,99.99
2023-03-06T05:51:39.735Z,99.99
2023-03-06T05:52:39.758Z,99.99
2023-03-06T05:53:39.752Z,99.99
2023-03-06T05:54:39.716Z,99.99
2023-03-06T05:55:39.731Z,99.99
2023-03-06T05:56:41.919Z,99.99
2023-03-06T05:57:39.694Z,99.99
2023-03-06T05:58:39.647Z,99.99
2023-03-06T05:59:39.671Z,99.99
2023-03-06T06:00:39.643Z,99.99
2023-03-06T06:01:39.616Z,99.99
2023-03-06T06:02:39.675Z,99.99
2023-03-06T06:03:39.669Z,99.99
2023-03-06T06:04:39.596Z,99.99
2023-03-06T06:05:39.613Z,99.99
2023-03-06T06:06:39.569Z,99.99
2023-03-06T06:07:39.625Z,99.99
2023-03-06T06:08:39.543Z,99.99
2023-03-06T06:09:39.563Z,99.99
2023-03-06T06:10:39.530Z,99.99
2023-03-06T06:11:39.538Z,99.99
2023-03-06T06:12:39.485Z,99.99
2023-03-06T06:13:39.499Z,99.99
2023-03-06T06:14:39.505Z,99.99
2023-03-06T06:15:39.504Z,99.99
2023-03-06T06:16:39.447Z,99.99
2023-03-06T06:17:39.451Z,99.99
2023-03-06T06:18:41.322Z,99.99
2023-03-06T06:19:39.434Z,99.99
2023-03-06T06:20:39.430Z,99.99
2023-03-06T06:21:39.422Z,99.99
2023-03-06T06:22:39.439Z,99.99
2023-03-06T06:23:39.418Z,99.99
2023-03-06T06:24:39.601Z,99.99
2023-03-06T06:25:39.360Z,99.99
2023-03-06T06:26:39.337Z,99.99
2023-03-06T06:27:39.363Z,99.99
2023-03-06T06:28:39.316Z,99.99
2023-03-06T06:29:39.339Z,99.99
2023-03-06T06:30:39.310Z,99.99
2023-03-06T06:31:39.328Z,99.99
2023-03-06T06:32:39.316Z,99.99
2023-03-06T06:33:39.309Z,99.99
2023-03-06T06:34:39.280Z,99.99
2023-03-06T06:35:39.308Z,99.99
2023-03-06T06:36:39.721Z,99.99
2023-03-06T06:37:41.279Z,99.99
2023-03-06T06:38:39.441Z,99.99
2023-03-06T06:39:39.406Z,99.99
2023-03-06T06:40:39.665Z,99.99
2023-03-06T06:42:00.057Z,99.99
2023-03-06T06:42:41.673Z,99.99
2023-03-06T06:43:40.282Z,99.99
2023-03-06T06:44:40.040Z,99.99
2023-03-06T06:45:41.724Z,99.99
2023-03-06T06:47:49.377Z,99.99
2023-03-06T06:48:49.274Z,99.99
2023-03-06T06:49:49.274Z,99.99
2023-03-06T06:50:49.269Z,99.99
2023-03-06T06:51:49.274Z,99.99
2023-03-06T06:52:49.240Z,99.99
2023-03-06T06:53:49.243Z,99.71
2023-03-06T06:54:49.256Z,99.71
2023-03-06T06:55:49.226Z,99.71
2023-03-06T06:56:49.195Z,99.60
2023-03-06T06:57:49.185Z,99.60
2023-03-06T06:58:49.210Z,99.35
2023-03-06T06:59:50.722Z,99.35
2023-03-06T07:00:49.154Z,99.24
2023-03-06T07:01:49.259Z,99.24
2023-03-06T07:02:49.228Z,99.35
2023-03-06T07:03:49.129Z,99.35
2023-03-06T07:05:02.519Z,99.35
2023-03-06T07:05:50.114Z,99.45
2023-03-06T07:06:49.090Z,99.35
2023-03-06T07:07:49.089Z,99.04
2023-03-06T07:08:49.060Z,98.93
2023-03-06T07:09:49.067Z,99.14
2023-03-06T07:10:49.037Z,99.14
2023-03-06T07:11:49.843Z,99.24
2023-03-06T07:12:49.050Z,99.24
2023-03-06T07:13:49.034Z,98.83
2023-03-06T07:14:48.995Z,99.04
2023-03-06T07:15:49.034Z,98.83
2023-03-06T07:16:48.999Z,98.62
2023-03-06T07:17:50.283Z,98.83
2023-03-06T07:18:48.956Z,98.83
2023-03-06T07:19:49.004Z,99.14
2023-03-06T07:20:48.980Z,98.93
2023-03-06T07:21:48.934Z,98.93
2023-03-06T07:22:51.606Z,98.83
2023-03-06T07:23:48.918Z,98.93
2023-03-06T07:24:48.892Z,98.83
2023-03-06T07:25:48.975Z,98.62
2023-03-06T07:26:48.879Z,98.20
2023-03-06T07:27:53.391Z,98.10
2023-03-06T07:28:52.638Z,98.41
2023-03-06T07:29:48.852Z,98.72
2023-03-06T07:30:48.842Z,98.93
2023-03-06T07:31:48.839Z,98.78
2023-03-06T07:32:48.832Z,98.88
2023-03-06T07:33:48.829Z,98.68
2023-03-06T07:34:48.841Z,98.72
2023-03-06T07:35:48.808Z,98.83
2023-03-06T07:36:48.789Z,98.83
2023-03-06T07:37:48.773Z,98.83
2023-03-06T07:38:48.775Z,98.83
2023-03-06T07:39:48.766Z,98.93
2023-03-06T07:40:48.776Z,98.93
2023-03-06T07:41:48.718Z,99.04
2023-03-06T07:42:48.749Z,99.35
2023-03-06T07:43:48.748Z,99.45
2023-03-06T07:44:48.728Z,99.45
2023-03-06T07:45:48.692Z,99.55
2023-03-06T07:46:48.712Z,99.35
2023-03-06T07:47:48.679Z,99.66
2023-03-06T07:48:48.675Z,99.55
2023-03-06T07:49:48.646Z,99.76
2023-03-06T07:50:48.629Z,99.87
2023-03-06T07:51:48.692Z,99.98
2023-03-06T07:52:48.624Z,99.99
2023-03-06T07:53:48.605Z,99.87
2023-03-06T07:54:48.613Z,99.87
2023-03-06T07:55:48.575Z,99.99
2023-03-06T07:56:48.737Z,99.98
2023-03-06T07:57:48.554Z,99.99
2023-03-06T07:58:48.590Z,99.99
2023-03-06T07:59:48.548Z,99.99
2023-03-06T08:00:48.567Z,99.87
2023-03-06T08:01:48.518Z,99.87
2023-03-06T08:02:48.549Z,99.99
2023-03-06T08:03:48.553Z,99.99
2023-03-06T08:04:48.510Z,99.99
2023-03-06T08:05:48.496Z,99.66
2023-03-06T08:06:48.479Z,99.99
2023-03-06T08:07:48.459Z,99.99
2023-03-06T08:08:48.456Z,99.99
2023-03-06T08:09:48.439Z,99.99
2023-03-06T08:10:48.438Z,99.99
2023-03-06T08:11:48.424Z,99.99
2023-03-06T08:12:48.429Z,99.99
2023-03-06T08:13:48.401Z,99.99
2023-03-06T08:14:48.407Z,99.99
2023-03-06T08:15:48.369Z,99.99
2023-03-06T08:16:48.381Z,99.99
2023-03-06T08:17:48.380Z,99.99
2023-03-06T08:18:48.349Z,99.99
2023-03-06T08:19:48.337Z,99.99
2023-03-06T08:20:48.328Z,99.99
2023-03-06T08:21:48.319Z,99.99
2023-03-06T08:22:48.314Z,99.99
2023-03-06T08:23:48.304Z,99.99
2023-03-06T08:24:48.301Z,99.99
2023-03-06T08:25:48.259Z,99.99
2023-03-06T08:26:48.264Z,99.99
2023-03-06T08:27:48.330Z,99.99
2023-03-06T08:28:48.249Z,99.99
2023-03-06T08:29:48.225Z,99.99
2023-03-06T08:30:48.245Z,99.99
2023-03-06T08:31:48.239Z,99.99
2023-03-06T08:32:48.203Z,99.99
2023-03-06T08:33:48.179Z,99.99
2023-03-06T08:34:48.187Z,99.99
2023-03-06T08:35:48.186Z,99.99
2023-03-06T08:36:48.154Z,99.99
2023-03-06T08:37:48.165Z,99.99
2023-03-06T08:38:48.147Z,99.99
2023-03-06T08:39:48.126Z,99.99
2023-03-06T08:40:48.125Z,99.99
2023-03-06T08:41:48.117Z,99.99
2023-03-06T08:42:48.100Z,99.99
2023-03-06T08:43:48.077Z,99.99
2023-03-06T08:44:48.077Z,99.99
2023-03-06T08:45:48.055Z,99.99
2023-03-06T08:46:48.057Z,99.99
2023-03-06T08:47:48.036Z,99.99
2023-03-06T08:48:48.037Z,99.99
2023-03-06T08:49:48.016Z,99.99
2023-03-06T08:50:48.020Z,99.99
2023-03-06T08:51:48.003Z,99.99
2023-03-06T08:52:48.197Z,99.99
2023-03-06T08:53:47.971Z,99.99
2023-03-06T08:54:47.973Z,99.99
2023-03-06T08:55:47.952Z,99.99
2023-03-06T08:56:47.947Z,99.99
2023-03-06T08:57:47.929Z,99.99
2023-03-06T08:58:48.002Z,99.99
2023-03-06T08:59:47.907Z,99.99
2023-03-06T09:00:48.000Z,99.99
2023-03-06T09:01:47.890Z,99.99
2023-03-06T09:02:47.882Z,99.99
2023-03-06T09:03:47.890Z,99.99
2023-03-06T09:04:47.923Z,99.99
2023-03-06T09:05:47.869Z,99.99
2023-03-06T09:06:47.842Z,99.99
2023-03-06T09:07:47.810Z,99.99
2023-03-06T09:08:47.845Z,99.99
2023-03-06T09:09:47.824Z,99.99
2023-03-06T09:10:47.850Z,99.99
2023-03-06T09:11:47.776Z,99.99
2023-03-06T09:12:51.411Z,99.99
2023-03-06T09:13:47.771Z,99.99
2023-03-06T09:14:47.752Z,99.99
2023-03-06T09:15:47.743Z,99.99
2023-03-06T09:16:47.762Z,99.99
2023-03-06T09:17:47.787Z,99.99
2023-03-06T09:18:47.728Z,99.99
2023-03-06T09:19:47.704Z,99.99
2023-03-06T09:20:47.700Z,99.99
2023-03-06T09:21:47.668Z,99.99
2023-03-06T09:22:47.668Z,99.99
2023-03-06T09:23:47.666Z,99.99
2023-03-06T09:24:47.644Z,99.99
2023-03-06T09:25:47.655Z,99.99
2023-03-06T09:26:49.387Z,99.99
2023-03-06T09:27:51.403Z,99.99
2023-03-06T09:28:48.958Z,99.99
2023-03-06T09:29:47.585Z,99.99
2023-03-06T09:30:47.675Z,99.99
2023-03-06T09:31:48.550Z,99.99
2023-03-06T09:32:47.572Z,99.99
2023-03-06T09:33:47.548Z,99.99
2023-03-06T09:34:47.570Z,99.99
2023-03-06T09:35:47.573Z,99.99
2023-03-06T09:36:56.451Z,99.99
2023-03-06T09:37:48.530Z,99.99
2023-03-06T09:38:47.515Z,99.99
2023-03-06T09:39:47.511Z,99.99
2023-03-06T09:40:47.498Z,99.99
2023-03-06T09:41:47.481Z,99.99
2023-03-06T09:42:47.455Z,99.99
2023-03-06T09:43:47.460Z,99.99
2023-03-06T09:44:47.456Z,99.99
2023-03-06T09:45:47.476Z,99.99
2023-03-06T09:46:47.430Z,99.99
2023-03-06T09:47:47.396Z,99.99
2023-03-06T09:48:47.412Z,99.99
2023-03-06T09:49:47.392Z,99.99
2023-03-06T09:50:47.386Z,99.99
2023-03-06T09:51:47.360Z,99.99
2023-03-06T09:52:47.369Z,99.99
2023-03-06T09:53:47.348Z,99.99
2023-03-06T09:54:47.354Z,99.99
2023-03-06T09:55:47.329Z,99.99
2023-03-06T09:56:47.338Z,99.99
2023-03-06T09:57:47.322Z,99.99
2023-03-06T09:58:47.326Z,99.99
2023-03-06T09:59:47.372Z,99.99
2023-03-06T10:00:47.272Z,99.99
2023-03-06T10:01:47.258Z,99.99
2023-03-06T10:02:47.382Z,99.99
2023-03-06T10:03:47.255Z,99.99
2023-03-06T10:04:47.276Z,99.99
2023-03-06T10:05:47.238Z,99.99
2023-03-06T10:06:47.219Z,99.99
2023-03-06T10:07:47.193Z,99.99
2023-03-06T10:08:47.188Z,99.99
2023-03-06T10:09:47.188Z,99.99
2023-03-06T10:10:47.163Z,99.99
2023-03-06T10:11:47.159Z,99.99
2023-03-06T10:12:47.166Z,99.99
2023-03-06T10:13:47.141Z,99.99
2023-03-06T10:14:49.157Z,99.99
2023-03-06T10:15:47.146Z,99.99
2023-03-06T10:16:47.118Z,99.99
2023-03-06T10:17:47.095Z,99.99
2023-03-06T10:18:47.536Z,99.99
2023-03-06T10:19:47.067Z,99.99
2023-03-06T10:20:48.025Z,99.99
2023-03-06T10:21:47.048Z,99.99
2023-03-06T10:23:00.012Z,99.99
2023-03-06T10:23:48.169Z,99.99
2023-03-06T10:24:47.048Z,99.99
2023-03-06T10:25:47.014Z,99.99
2023-03-06T10:26:47.068Z,99.99
2023-03-06T10:27:46.991Z,99.99
2023-03-06T10:28:47.000Z,99.99
2023-03-06T10:30:01.269Z,99.99
2023-03-06T10:30:47.996Z,99.99
2023-03-06T10:31:46.952Z,99.99
2023-03-06T10:32:49.010Z,99.99
2023-03-06T10:33:46.930Z,99.99
2023-03-06T10:34:46.934Z,99.99
2023-03-06T10:35:46.995Z,99.99
2023-03-06T10:36:46.901Z,99.99
2023-03-06T10:37:46.886Z,99.99
2023-03-06T10:38:46.914Z,99.99
2023-03-06T10:39:46.878Z,99.99
2023-03-06T10:40:46.872Z,99.99
2023-03-06T10:41:46.846Z,99.99
2023-03-06T10:42:46.841Z,99.99
2023-03-06T10:43:46.825Z,99.99
2023-03-06T10:44:46.842Z,99.99
2023-03-06T10:45:49.206Z,99.99
2023-03-06T10:46:46.853Z,99.99
2023-03-06T10:47:46.791Z,99.99
2023-03-06T10:48:46.784Z,99.99
2023-03-06T10:49:46.759Z,99.99
2023-03-06T10:50:46.765Z,99.99
2023-03-06T10:51:46.736Z,99.99
2023-03-06T10:52:46.727Z,99.99
2023-03-06T10:53:46.715Z,99.99
2023-03-06T10:54:46.711Z,99.99
2023-03-06T10:55:46.690Z,99.99
2023-03-06T10:56:46.694Z,99.99
2023-03-06T10:57:46.672Z,99.99
2023-03-06T10:58:46.677Z,99.88
2023-03-06T10:59:46.663Z,99.99
2023-03-06T11:00:46.740Z,99.52
2023-03-06T11:01:46.663Z,99.42
2023-03-06T11:02:46.631Z,98.94
2023-03-06T11:03:46.605Z,99.57
2023-03-06T11:04:46.640Z,99.99
2023-03-06T11:05:46.601Z,99.99
2023-03-06T11:06:46.580Z,99.99
2023-03-06T11:07:46.567Z,99.99
2023-03-06T11:08:46.567Z,99.99
2023-03-06T11:09:46.574Z,99.99
2023-03-06T11:10:46.538Z,98.48
2023-03-06T11:11:46.519Z,97.91
2023-03-06T11:12:46.527Z,98.53
2023-03-06T11:13:46.509Z,98.94
2023-03-06T11:14:46.514Z,98.74
2023-03-06T11:15:46.505Z,98.74
2023-03-06T11:16:46.485Z,99.36
2023-03-06T11:17:46.476Z,98.94
2023-03-06T11:18:46.459Z,98.43
2023-03-06T11:19:46.444Z,98.53
2023-03-06T11:20:52.353Z,98.32
2023-03-06T11:21:47.428Z,98.22
2023-03-06T11:22:49.023Z,97.91
2023-03-06T11:23:46.412Z,98.43
2023-03-06T11:24:46.417Z,98.11
2023-03-06T11:25:46.383Z,98.43
2023-03-06T11:26:46.390Z,98.32
2023-03-06T11:27:46.356Z,98.01
2023-03-06T11:28:46.444Z,98.22
2023-03-06T11:29:46.327Z,97.91
2023-03-06T11:30:46.354Z,97.96
2023-03-06T11:31:46.428Z,98.59
2023-03-06T11:32:46.328Z,98.27
2023-03-06T11:33:46.296Z,98.07
2023-03-06T11:34:47.676Z,97.07
2023-03-06T11:35:46.299Z,98.11
2023-03-06T11:36:46.272Z,98.27
2023-03-06T11:37:46.254Z,98.90
2023-03-06T11:38:46.251Z,98.69
2023-03-06T11:39:46.226Z,98.02
2023-03-06T11:40:46.244Z,97.71
2023-03-06T11:41:46.194Z,98.02
2023-03-06T11:42:46.221Z,97.19
2023-03-06T11:43:46.196Z,95.90
2023-03-06T11:44:46.162Z,95.17
2023-03-06T11:45:46.176Z,95.17
2023-03-06T11:46:46.162Z,94.96
2023-03-06T11:47:46.169Z,94.92
2023-03-06T11:48:46.138Z,92.22
2023-03-06T11:49:46.141Z,91.97
2023-03-06T11:50:46.116Z,91.14
2023-03-06T11:51:46.112Z,91.66
2023-03-06T11:52:46.098Z,90.72
2023-03-06T11:53:47.048Z,90.62
2023-03-06T11:54:46.096Z,90.89
2023-03-06T11:55:46.068Z,90.79
2023-03-06T11:56:46.110Z,89.86
2023-03-06T11:57:46.046Z,90.37
2023-03-06T11:58:46.048Z,89.13
2023-03-06T11:59:46.037Z,89.19
2023-03-06T12:00:46.003Z,88.98
2023-03-06T12:01:46.046Z,90.19
2023-03-06T12:02:46.075Z,87.35
2023-03-06T12:03:45.986Z,85.06
2023-03-06T12:04:45.992Z,84.51
2023-03-06T12:05:46.060Z,85.13
2023-03-06T12:06:45.950Z,85.27
2023-03-06T12:07:45.956Z,83.89
2023-03-06T12:08:45.943Z,83.89
2023-03-06T12:09:45.918Z,83.31
2023-03-06T12:10:51.446Z,83.20
2023-03-06T12:11:46.910Z,82.89
2023-03-06T12:12:45.911Z,83.72
2023-03-06T12:13:45.881Z,84.06
2023-03-06T12:14:45.882Z,83.19
2023-03-06T12:15:45.874Z,81.09
2023-03-06T12:16:45.842Z,81.43
2023-03-06T12:17:45.837Z,79.26
2023-03-06T12:18:45.814Z,80.02
2023-03-06T12:19:45.818Z,81.47
2023-03-06T12:20:45.801Z,79.40
2023-03-06T12:21:45.796Z,78.99
2023-03-06T12:22:57.426Z,78.50
2023-03-06T12:23:46.782Z,79.74
2023-03-06T12:24:45.755Z,80.47
2023-03-06T12:25:45.783Z,81.09
2023-03-06T12:26:45.748Z,82.19
2023-03-06T12:27:45.758Z,81.16
2023-03-06T12:28:46.518Z,80.64
2023-03-06T12:29:45.721Z,80.02
2023-03-06T12:30:45.688Z,79.81
2023-03-06T12:31:45.709Z,80.64
2023-03-06T12:32:45.684Z,79.09
2023-03-06T12:33:45.909Z,78.19
2023-03-06T12:34:45.644Z,77.05
2023-03-06T12:35:45.677Z,77.88
2023-03-06T12:36:45.615Z,75.92
2023-03-06T12:37:45.628Z,77.47
2023-03-06T12:38:45.606Z,77.36
2023-03-06T12:39:45.605Z,78.61
2023-03-06T12:40:45.578Z,79.74
2023-03-06T12:41:45.591Z,79.64
2023-03-06T12:42:45.557Z,78.19
2023-03-06T12:43:45.563Z,77.57
2023-03-06T12:44:45.573Z,78.81
2023-03-06T12:45:45.564Z,77.67
2023-03-06T12:46:45.493Z,77.36
2023-03-06T12:47:45.517Z,77.67
2023-03-06T12:48:45.479Z,77.05
2023-03-06T12:49:47.415Z,77.05
2023-03-06T12:50:45.539Z,77.36
2023-03-06T12:51:45.487Z,78.40
2023-03-06T12:52:45.464Z,76.23
2023-03-06T12:53:45.474Z,77.33
2023-03-06T12:54:45.445Z,75.57
2023-03-06T12:55:45.459Z,74.53
2023-03-06T12:56:45.422Z,75.88
2023-03-06T12:57:45.404Z,77.70